sensor_id;sensor_type;location;lat;lon;timestamp;pressure;altitude;pressure_sealevel;temperature;humidity
46291;BME280;32023;44.444;26.006;2022-12-24T00:01:15;100259.94;;;1.06;90.81
46291;BME280;32023;44.444;26.006;2022-12-24T00:03:51;100252.63;;;1.00;90.83
46291;BME280;32023;44.444;26.006;2022-12-24T00:06:20;100254.31;;;1.01;91.10
46291;BME280;32023;44.444;26.006;2022-12-24T00:08:50;100254.50;;;1.00;90.97
46291;BME280;32023;44.444;26.006;2022-12-24T00:11:23;100258.25;;;0.98;91.07
46291;BME280;32023;44.444;26.006;2022-12-24T00:13:52;100250.97;;;0.99;91.22
46291;BME280;32023;44.444;26.006;2022-12-24T00:16:22;100250.34;;;1.04;91.26
46291;BME280;32023;44.444;26.006;2022-12-24T00:18:57;100238.25;;;1.06;91.34
46291;BME280;32023;44.444;26.006;2022-12-24T00:21:27;100236.81;;;1.04;91.17
46291;BME280;32023;44.444;26.006;2022-12-24T00:23:59;100248.31;;;1.06;91.19
46291;BME280;32023;44.444;26.006;2022-12-24T00:26:47;100254.09;;;1.03;91.07
46291;BME280;32023;44.444;26.006;2022-12-24T00:29:19;100252.03;;;1.05;91.29
46291;BME280;32023;44.444;26.006;2022-12-24T00:31:48;100249.09;;;1.00;91.19
46291;BME280;32023;44.444;26.006;2022-12-24T00:34:27;100251.19;;;0.98;91.38
46291;BME280;32023;44.444;26.006;2022-12-24T00:37:03;100243.03;;;0.98;91.27
46291;BME280;32023;44.444;26.006;2022-12-24T00:39:57;100242.19;;;0.97;91.21
46291;BME280;32023;44.444;26.006;2022-12-24T00:42:29;100238.25;;;1.00;91.33
46291;BME280;32023;44.444;26.006;2022-12-24T00:48:57;100228.63;;;0.90;91.93
46291;BME280;32023;44.444;26.006;2022-12-24T00:51:27;100212.34;;;0.90;92.33
46291;BME280;32023;44.444;26.006;2022-12-24T00:54:08;100222.34;;;0.90;92.43
46291;BME280;32023;44.444;26.006;2022-12-24T00:56:44;100219.84;;;0.88;92.40
46291;BME280;32023;44.444;26.006;2022-12-24T00:59:15;100224.22;;;0.89;92.30
46291;BME280;32023;44.444;26.006;2022-12-24T01:01:45;100229.84;;;0.88;92.07
46291;BME280;32023;44.444;26.006;2022-12-24T01:04:18;100233.56;;;0.80;91.93
46291;BME280;32023;44.444;26.006;2022-12-24T01:07:09;100239.78;;;0.74;91.90
46291;BME280;32023;44.444;26.006;2022-12-24T01:09:58;100240.97;;;0.65;91.87
46291;BME280;32023;44.444;26.006;2022-12-24T01:12:38;100237.22;;;0.66;91.90
46291;BME280;32023;44.444;26.006;2022-12-24T01:15:50;100237.84;;;0.68;92.02
46291;BME280;32023;44.444;26.006;2022-12-24T01:18:21;100236.22;;;0.74;92.16
46291;BME280;32023;44.444;26.006;2022-12-24T01:21:26;100218.94;;;0.75;91.93
46291;BME280;32023;44.444;26.006;2022-12-24T01:23:58;100215.56;;;0.73;92.39
46291;BME280;32023;44.444;26.006;2022-12-24T01:26:48;100217.44;;;0.72;92.54
46291;BME280;32023;44.444;26.006;2022-12-24T01:29:32;100210.97;;;0.67;92.69
46291;BME280;32023;44.444;26.006;2022-12-24T01:32:09;100206.00;;;0.70;92.99
46291;BME280;32023;44.444;26.006;2022-12-24T01:35:21;100206.41;;;0.67;93.00
46291;BME280;32023;44.444;26.006;2022-12-24T01:37:56;100206.97;;;0.63;93.04
46291;BME280;32023;44.444;26.006;2022-12-24T01:40:25;100203.19;;;0.57;93.43
46291;BME280;32023;44.444;26.006;2022-12-24T01:43:25;100200.44;;;0.51;93.86
46291;BME280;32023;44.444;26.006;2022-12-24T01:49:21;100183.34;;;0.50;94.72
46291;BME280;32023;44.444;26.006;2022-12-24T01:55:31;100190.53;;;0.64;94.94
46291;BME280;32023;44.444;26.006;2022-12-24T01:58:34;100194.13;;;0.71;94.83
46291;BME280;32023;44.444;26.006;2022-12-24T02:01:39;100194.31;;;0.70;94.11
46291;BME280;32023;44.444;26.006;2022-12-24T02:05:11;100191.41;;;0.71;94.14
46291;BME280;32023;44.444;26.006;2022-12-24T02:07:21;100189.75;;;0.77;95.02
46291;BME280;32023;44.444;26.006;2022-12-24T02:10:14;100190.44;;;0.85;95.10
46291;BME280;32023;44.444;26.006;2022-12-24T02:13:16;100194.84;;;0.93;95.15
46291;BME280;32023;44.444;26.006;2022-12-24T02:34:57;100172.34;;;0.99;95.68
46291;BME280;32023;44.444;26.006;2022-12-24T02:47:02;100192.81;;;1.02;96.48
46291;BME280;32023;44.444;26.006;2022-12-24T02:50:02;100185.69;;;1.01;96.23
46291;BME280;32023;44.444;26.006;2022-12-24T02:52:51;100187.38;;;1.02;95.85
46291;BME280;32023;44.444;26.006;2022-12-24T03:12:14;100189.75;;;0.77;95.23
46291;BME280;32023;44.444;26.006;2022-12-24T03:15:44;100193.28;;;0.71;95.15
46291;BME280;32023;44.444;26.006;2022-12-24T03:19:05;100191.56;;;0.63;94.85
46291;BME280;32023;44.444;26.006;2022-12-24T03:22:01;100187.56;;;0.53;94.54
46291;BME280;32023;44.444;26.006;2022-12-24T03:24:30;100189.34;;;0.45;94.80
46291;BME280;32023;44.444;26.006;2022-12-24T03:26:59;100193.97;;;0.45;95.08
46291;BME280;32023;44.444;26.006;2022-12-24T03:29:45;100192.28;;;0.44;94.98
46291;BME280;32023;44.444;26.006;2022-12-24T03:32:12;100194.56;;;0.40;94.90
46291;BME280;32023;44.444;26.006;2022-12-24T03:34:42;100192.03;;;0.39;94.77
46291;BME280;32023;44.444;26.006;2022-12-24T03:37:08;100202.03;;;0.38;94.61
46291;BME280;32023;44.444;26.006;2022-12-24T03:42:46;100193.06;;;0.38;94.76
46291;BME280;32023;44.444;26.006;2022-12-24T03:45:13;100188.28;;;0.40;94.83
46291;BME280;32023;44.444;26.006;2022-12-24T03:47:39;100179.34;;;0.39;94.83
46291;BME280;32023;44.444;26.006;2022-12-24T03:50:09;100180.16;;;0.40;95.05
46291;BME280;32023;44.444;26.006;2022-12-24T03:52:36;100194.13;;;0.37;95.04
46291;BME280;32023;44.444;26.006;2022-12-24T03:55:05;100192.44;;;0.36;95.33
46291;BME280;32023;44.444;26.006;2022-12-24T03:57:38;100193.47;;;0.35;95.54
46291;BME280;32023;44.444;26.006;2022-12-24T04:00:06;100193.28;;;0.36;96.08
46291;BME280;32023;44.444;26.006;2022-12-24T04:02:33;100196.56;;;0.32;96.74
46291;BME280;32023;44.444;26.006;2022-12-24T04:05:02;100192.84;;;0.33;96.72
46291;BME280;32023;44.444;26.006;2022-12-24T04:07:32;100184.94;;;0.38;96.95
46291;BME280;32023;44.444;26.006;2022-12-24T04:10:00;100192.03;;;0.39;97.06
46291;BME280;32023;44.444;26.006;2022-12-24T04:12:29;100187.91;;;0.43;97.07
46291;BME280;32023;44.444;26.006;2022-12-24T04:15:04;100195.19;;;0.42;97.16
46291;BME280;32023;44.444;26.006;2022-12-24T04:17:41;100194.59;;;0.47;97.53
46291;BME280;32023;44.444;26.006;2022-12-24T04:20:13;100203.38;;;0.49;97.72
46291;BME280;32023;44.444;26.006;2022-12-24T04:22:56;100196.91;;;0.50;97.68
46291;BME280;32023;44.444;26.006;2022-12-24T04:25:41;100192.91;;;0.46;97.66
46291;BME280;32023;44.444;26.006;2022-12-24T04:28:12;100194.19;;;0.50;97.83
46291;BME280;32023;44.444;26.006;2022-12-24T04:30:43;100198.16;;;0.54;98.25
46291;BME280;32023;44.444;26.006;2022-12-24T04:33:15;100195.91;;;0.58;98.25
46291;BME280;32023;44.444;26.006;2022-12-24T04:35:45;100194.88;;;0.59;98.10
46291;BME280;32023;44.444;26.006;2022-12-24T04:38:11;100191.31;;;0.58;98.00
46291;BME280;32023;44.444;26.006;2022-12-24T04:40:38;100191.91;;;0.54;97.48
46291;BME280;32023;44.444;26.006;2022-12-24T04:43:09;100198.75;;;0.49;96.92
46291;BME280;32023;44.444;26.006;2022-12-24T04:45:36;100188.34;;;0.46;96.74
46291;BME280;32023;44.444;26.006;2022-12-24T04:48:02;100188.75;;;0.43;96.47
46291;BME280;32023;44.444;26.006;2022-12-24T04:50:34;100195.00;;;0.44;96.09
46291;BME280;32023;44.444;26.006;2022-12-24T04:53:04;100212.94;;;0.45;96.07
46291;BME280;32023;44.444;26.006;2022-12-24T04:55:33;100210.22;;;0.45;96.07
46291;BME280;32023;44.444;26.006;2022-12-24T04:58:05;100216.44;;;0.45;95.64
46291;BME280;32023;44.444;26.006;2022-12-24T05:00:33;100222.47;;;0.41;95.35
46291;BME280;32023;44.444;26.006;2022-12-24T05:03:06;100220.94;;;0.32;94.77
46291;BME280;32023;44.444;26.006;2022-12-24T05:05:35;100207.81;;;0.29;94.54
46291;BME280;32023;44.444;26.006;2022-12-24T05:08:09;100200.25;;;0.24;94.26
46291;BME280;32023;44.444;26.006;2022-12-24T05:10:35;100195.84;;;0.17;94.25
46291;BME280;32023;44.444;26.006;2022-12-24T05:13:03;100199.19;;;0.19;94.55
46291;BME280;32023;44.444;26.006;2022-12-24T05:15:36;100198.94;;;0.14;94.35
46291;BME280;32023;44.444;26.006;2022-12-24T05:18:02;100201.00;;;0.12;94.62
46291;BME280;32023;44.444;26.006;2022-12-24T05:20:30;100194.16;;;0.16;94.90
46291;BME280;32023;44.444;26.006;2022-12-24T05:22:57;100196.50;;;0.19;94.93
46291;BME280;32023;44.444;26.006;2022-12-24T05:25:56;100198.81;;;0.22;94.69
46291;BME280;32023;44.444;26.006;2022-12-24T05:28:44;100203.38;;;0.21;94.67
46291;BME280;32023;44.444;26.006;2022-12-24T05:31:11;100199.44;;;0.24;94.44
46291;BME280;32023;44.444;26.006;2022-12-24T05:33:41;100203.00;;;0.31;94.62
46291;BME280;32023;44.444;26.006;2022-12-24T05:36:08;100213.84;;;0.31;94.32
46291;BME280;32023;44.444;26.006;2022-12-24T05:38:35;100218.41;;;0.30;93.85
46291;BME280;32023;44.444;26.006;2022-12-24T05:41:02;100215.34;;;0.33;93.96
46291;BME280;32023;44.444;26.006;2022-12-24T05:43:37;100212.13;;;0.23;93.31
46291;BME280;32023;44.444;26.006;2022-12-24T05:46:15;100218.50;;;0.16;93.33
46291;BME280;32023;44.444;26.006;2022-12-24T05:48:54;100212.72;;;0.19;93.40
46291;BME280;32023;44.444;26.006;2022-12-24T05:51:23;100213.94;;;0.16;93.28
46291;BME280;32023;44.444;26.006;2022-12-24T05:54:10;100207.69;;;0.16;93.31
46291;BME280;32023;44.444;26.006;2022-12-24T05:56:39;100205.63;;;0.18;93.48
46291;BME280;32023;44.444;26.006;2022-12-24T05:59:08;100215.03;;;0.22;93.46
46291;BME280;32023;44.444;26.006;2022-12-24T06:01:40;100208.56;;;0.23;93.46
46291;BME280;32023;44.444;26.006;2022-12-24T06:04:21;100210.91;;;0.26;93.48
46291;BME280;32023;44.444;26.006;2022-12-24T06:06:50;100211.97;;;0.31;93.37
46291;BME280;32023;44.444;26.006;2022-12-24T06:09:31;100214.94;;;0.36;93.30
46291;BME280;32023;44.444;26.006;2022-12-24T06:12:46;100208.72;;;0.42;92.90
46291;BME280;32023;44.444;26.006;2022-12-24T06:18:59;100213.66;;;0.60;92.27
46291;BME280;32023;44.444;26.006;2022-12-24T06:21:36;100215.97;;;0.70;92.07
46291;BME280;32023;44.444;26.006;2022-12-24T06:32:52;100207.13;;;0.89;88.93
46291;BME280;32023;44.444;26.006;2022-12-24T06:36:06;100205.16;;;0.76;88.70
46291;BME280;32023;44.444;26.006;2022-12-24T06:39:19;100206.69;;;0.85;88.91
46291;BME280;32023;44.444;26.006;2022-12-24T06:42:08;100206.97;;;1.04;88.32
46291;BME280;32023;44.444;26.006;2022-12-24T06:44:44;100218.28;;;1.14;87.32
46291;BME280;32023;44.444;26.006;2022-12-24T06:47:27;100222.72;;;1.28;86.34
46291;BME280;32023;44.444;26.006;2022-12-24T06:50:47;100220.09;;;1.54;85.79
46291;BME280;32023;44.444;26.006;2022-12-24T06:53:53;100233.06;;;1.65;83.95
46291;BME280;32023;44.444;26.006;2022-12-24T06:56:31;100217.66;;;1.92;83.14
46291;BME280;32023;44.444;26.006;2022-12-24T06:59:01;100213.28;;;2.24;82.90
46291;BME280;32023;44.444;26.006;2022-12-24T07:01:36;100211.53;;;2.69;82.52
46291;BME280;32023;44.444;26.006;2022-12-24T07:04:02;100218.34;;;3.04;80.12
46291;BME280;32023;44.444;26.006;2022-12-24T07:06:29;100211.13;;;3.36;78.65
46291;BME280;32023;44.444;26.006;2022-12-24T07:09:03;100218.06;;;3.63;77.01
46291;BME280;32023;44.444;26.006;2022-12-24T07:14:21;100208.09;;;4.13;73.66
46291;BME280;32023;44.444;26.006;2022-12-24T07:17:07;100210.94;;;4.25;72.75
46291;BME280;32023;44.444;26.006;2022-12-24T07:25:30;100211.88;;;4.80;70.76
46291;BME280;32023;44.444;26.006;2022-12-24T07:31:23;100209.28;;;5.40;67.84
46291;BME280;32023;44.444;26.006;2022-12-24T07:36:42;100223.00;;;5.51;66.10
46291;BME280;32023;44.444;26.006;2022-12-24T07:39:09;100207.63;;;5.68;65.96
46291;BME280;32023;44.444;26.006;2022-12-24T07:42:07;100195.38;;;6.01;65.44
46291;BME280;32023;44.444;26.006;2022-12-24T07:51:00;100204.63;;;6.41;64.58
46291;BME280;32023;44.444;26.006;2022-12-24T07:53:32;100211.88;;;6.82;64.46
46291;BME280;32023;44.444;26.006;2022-12-24T07:56:01;100212.09;;;7.04;63.64
46291;BME280;32023;44.444;26.006;2022-12-24T07:58:31;100212.41;;;7.31;62.91
46291;BME280;32023;44.444;26.006;2022-12-24T08:01:57;100214.19;;;7.65;60.77
46291;BME280;32023;44.444;26.006;2022-12-24T08:08:09;100205.06;;;8.21;59.22
46291;BME280;32023;44.444;26.006;2022-12-24T08:10:47;100200.94;;;8.35;58.93
46291;BME280;32023;44.444;26.006;2022-12-24T08:13:19;100188.63;;;8.54;59.13
46291;BME280;32023;44.444;26.006;2022-12-24T08:19:18;100193.59;;;9.56;56.52
46291;BME280;32023;44.444;26.006;2022-12-24T08:21:54;100189.78;;;10.37;55.53
46291;BME280;32023;44.444;26.006;2022-12-24T08:24:46;100176.78;;;10.70;52.92
46291;BME280;32023;44.444;26.006;2022-12-24T08:28:04;100193.75;;;10.20;53.42
46291;BME280;32023;44.444;26.006;2022-12-24T08:34:20;100199.19;;;8.62;58.44
46291;BME280;32023;44.444;26.006;2022-12-24T08:43:59;100190.53;;;8.04;62.27
46291;BME280;32023;44.444;26.006;2022-12-24T08:47:04;100174.13;;;8.37;62.74
46291;BME280;32023;44.444;26.006;2022-12-24T08:52:52;100178.13;;;9.50;58.05
46291;BME280;32023;44.444;26.006;2022-12-24T08:56:08;100182.31;;;10.06;57.14
46291;BME280;32023;44.444;26.006;2022-12-24T08:58:36;100181.66;;;10.57;55.66
46291;BME280;32023;44.444;26.006;2022-12-24T09:01:58;100181.56;;;11.31;53.63
46291;BME280;32023;44.444;26.006;2022-12-24T09:04:37;100169.59;;;11.73;52.26
46291;BME280;32023;44.444;26.006;2022-12-24T09:07:13;100155.88;;;12.38;51.06
46291;BME280;32023;44.444;26.006;2022-12-24T09:09:57;100150.25;;;12.89;49.94
46291;BME280;32023;44.444;26.006;2022-12-24T09:18:23;100150.84;;;12.66;50.41
46291;BME280;32023;44.444;26.006;2022-12-24T09:21:20;100165.22;;;12.02;51.94
46291;BME280;32023;44.444;26.006;2022-12-24T09:23:54;100168.25;;;11.18;54.57
46291;BME280;32023;44.444;26.006;2022-12-24T09:26:39;100159.72;;;10.73;56.34
46291;BME280;32023;44.444;26.006;2022-12-24T09:29:39;100166.94;;;10.10;58.53
46291;BME280;32023;44.444;26.006;2022-12-24T09:32:44;100158.09;;;9.76;60.62
46291;BME280;32023;44.444;26.006;2022-12-24T09:35:37;100160.25;;;9.47;61.73
46291;BME280;32023;44.444;26.006;2022-12-24T09:38:38;100171.00;;;9.05;63.17
46291;BME280;32023;44.444;26.006;2022-12-24T09:48:32;100174.25;;;8.14;67.83
46291;BME280;32023;44.444;26.006;2022-12-24T09:58:03;100160.00;;;7.55;70.25
46291;BME280;32023;44.444;26.006;2022-12-24T10:01:13;100168.88;;;7.46;70.48
46291;BME280;32023;44.444;26.006;2022-12-24T10:04:21;100166.66;;;7.31;70.84
46291;BME280;32023;44.444;26.006;2022-12-24T10:06:52;100175.75;;;7.20;71.20
46291;BME280;32023;44.444;26.006;2022-12-24T10:12:42;100179.50;;;7.02;72.48
46291;BME280;32023;44.444;26.006;2022-12-24T10:18:58;100182.84;;;6.93;73.29
46291;BME280;32023;44.444;26.006;2022-12-24T10:25:20;100182.63;;;6.83;74.33
46291;BME280;32023;44.444;26.006;2022-12-24T10:28:55;100178.91;;;6.89;74.74
46291;BME280;32023;44.444;26.006;2022-12-24T10:34:58;100173.22;;;7.30;74.19
46291;BME280;32023;44.444;26.006;2022-12-24T10:37:47;100170.69;;;7.68;73.24
46291;BME280;32023;44.444;26.006;2022-12-24T10:43:38;100174.03;;;7.87;72.43
46291;BME280;32023;44.444;26.006;2022-12-24T10:52:59;100177.63;;;7.59;74.67
46291;BME280;32023;44.444;26.006;2022-12-24T10:55:51;100167.53;;;7.48;75.32
46291;BME280;32023;44.444;26.006;2022-12-24T10:58:33;100169.03;;;7.39;76.11
46291;BME280;32023;44.444;26.006;2022-12-24T11:01:07;100172.28;;;7.24;77.29
46291;BME280;32023;44.444;26.006;2022-12-24T11:03:50;100170.06;;;7.10;78.48
46291;BME280;32023;44.444;26.006;2022-12-24T11:10:30;100120.53;;;6.71;80.55
46291;BME280;32023;44.444;26.006;2022-12-24T11:13:35;100160.25;;;6.86;82.45
46291;BME280;32023;44.444;26.006;2022-12-24T11:16:33;100156.88;;;6.84;83.23
46291;BME280;32023;44.444;26.006;2022-12-24T11:19:30;100150.50;;;6.78;84.08
46291;BME280;32023;44.444;26.006;2022-12-24T11:22:32;100155.13;;;6.77;85.07
46291;BME280;32023;44.444;26.006;2022-12-24T11:28:26;100158.69;;;6.78;85.62
46291;BME280;32023;44.444;26.006;2022-12-24T11:31:18;100149.19;;;6.69;85.96
46291;BME280;32023;44.444;26.006;2022-12-24T11:37:23;100158.59;;;6.61;87.16
46291;BME280;32023;44.444;26.006;2022-12-24T11:39:55;100168.81;;;6.54;87.14
46291;BME280;32023;44.444;26.006;2022-12-24T11:42:41;100154.66;;;6.57;87.54
46291;BME280;32023;44.444;26.006;2022-12-24T11:45:29;100157.88;;;6.54;87.34
46291;BME280;32023;44.444;26.006;2022-12-24T11:47:56;100161.72;;;6.53;87.64
46291;BME280;32023;44.444;26.006;2022-12-24T11:50:36;100154.22;;;6.60;87.65
46291;BME280;32023;44.444;26.006;2022-12-24T11:53:24;100153.38;;;6.60;87.18
46291;BME280;32023;44.444;26.006;2022-12-24T11:55:59;100158.38;;;6.51;87.26
46291;BME280;32023;44.444;26.006;2022-12-24T12:01:32;100158.38;;;6.51;87.18
46291;BME280;32023;44.444;26.006;2022-12-24T12:04:33;100155.63;;;6.63;88.07
46291;BME280;32023;44.444;26.006;2022-12-24T12:07:47;100158.22;;;6.81;87.82
46291;BME280;32023;44.444;26.006;2022-12-24T12:10:31;100153.91;;;6.97;86.27
46291;BME280;32023;44.444;26.006;2022-12-24T12:13:29;100150.88;;;7.50;85.16
46291;BME280;32023;44.444;26.006;2022-12-24T12:16:55;100143.38;;;7.90;82.55
46291;BME280;32023;44.444;26.006;2022-12-24T12:19:54;100159.59;;;8.08;81.10
46291;BME280;32023;44.444;26.006;2022-12-24T12:22:41;100148.47;;;7.98;80.26
46291;BME280;32023;44.444;26.006;2022-12-24T12:25:39;100144.38;;;7.84;80.66
46291;BME280;32023;44.444;26.006;2022-12-24T12:34:49;100143.38;;;7.45;83.10
46291;BME280;32023;44.444;26.006;2022-12-24T12:37:43;100142.50;;;7.28;84.10
46291;BME280;32023;44.444;26.006;2022-12-24T12:40:23;100149.44;;;7.19;84.64
46291;BME280;32023;44.444;26.006;2022-12-24T12:58:24;100149.78;;;6.71;88.64
46291;BME280;32023;44.444;26.006;2022-12-24T13:01:13;100151.34;;;6.67;89.36
46291;BME280;32023;44.444;26.006;2022-12-24T13:06:34;100156.25;;;6.53;89.85
46291;BME280;32023;44.444;26.006;2022-12-24T13:09:51;100159.91;;;6.47;90.56
46291;BME280;32023;44.444;26.006;2022-12-24T13:15:43;100155.84;;;6.50;90.54
46291;BME280;32023;44.444;26.006;2022-12-24T13:21:53;100156.47;;;6.40;91.59
46291;BME280;32023;44.444;26.006;2022-12-24T13:24:54;100155.28;;;6.36;91.73
46291;BME280;32023;44.444;26.006;2022-12-24T13:27:28;100158.00;;;6.36;92.42
46291;BME280;32023;44.444;26.006;2022-12-24T13:30:05;100160.63;;;6.43;92.25
46291;BME280;32023;44.444;26.006;2022-12-24T13:32:52;100150.88;;;6.35;92.20
46291;BME280;32023;44.444;26.006;2022-12-24T13:35:34;100155.28;;;6.36;92.48
46291;BME280;32023;44.444;26.006;2022-12-24T13:50:22;100149.22;;;6.34;91.34
46291;BME280;32023;44.444;26.006;2022-12-24T13:52:55;100152.75;;;6.35;91.30
46291;BME280;32023;44.444;26.006;2022-12-24T13:55:27;100144.19;;;6.31;91.63
46291;BME280;32023;44.444;26.006;2022-12-24T13:58:03;100151.59;;;6.31;91.53
46291;BME280;32023;44.444;26.006;2022-12-24T14:00:41;100132.47;;;6.31;91.66
46291;BME280;32023;44.444;26.006;2022-12-24T14:05:47;100128.88;;;6.30;91.67
46291;BME280;32023;44.444;26.006;2022-12-24T14:16:31;100117.34;;;6.16;92.65
46291;BME280;32023;44.444;26.006;2022-12-24T14:19:15;100117.59;;;6.15;92.75
46291;BME280;32023;44.444;26.006;2022-12-24T14:27:39;100114.16;;;6.08;93.35
46291;BME280;32023;44.444;26.006;2022-12-24T14:30:29;100115.78;;;6.09;93.35
46291;BME280;32023;44.444;26.006;2022-12-24T14:33:33;100134.91;;;6.09;92.67
46291;BME280;32023;44.444;26.006;2022-12-24T14:36:06;100121.50;;;6.07;92.71
46291;BME280;32023;44.444;26.006;2022-12-24T14:38:39;100134.34;;;6.07;92.71
46291;BME280;32023;44.444;26.006;2022-12-24T14:44:33;100147.38;;;6.05;92.38
46291;BME280;32023;44.444;26.006;2022-12-24T14:52:47;100155.56;;;5.93;93.21
46291;BME280;32023;44.444;26.006;2022-12-24T14:55:38;100165.91;;;5.91;92.67
46291;BME280;32023;44.444;26.006;2022-12-24T14:58:31;100172.69;;;5.89;92.70
46291;BME280;32023;44.444;26.006;2022-12-24T15:03:43;100175.09;;;5.78;92.96
46291;BME280;32023;44.444;26.006;2022-12-24T15:06:13;100174.53;;;5.76;93.34
46291;BME280;32023;44.444;26.006;2022-12-24T15:08:52;100179.97;;;5.76;92.98
46291;BME280;32023;44.444;26.006;2022-12-24T15:11:26;100175.44;;;5.70;92.85
46291;BME280;32023;44.444;26.006;2022-12-24T15:14:00;100179.47;;;5.68;93.35
46291;BME280;32023;44.444;26.006;2022-12-24T15:16:55;100171.13;;;5.63;93.47
46291;BME280;32023;44.444;26.006;2022-12-24T15:19:47;100176.22;;;5.59;93.11
46291;BME280;32023;44.444;26.006;2022-12-24T15:22:29;100176.69;;;5.56;93.56
46291;BME280;32023;44.444;26.006;2022-12-24T15:25:02;100178.38;;;5.57;93.58
46291;BME280;32023;44.444;26.006;2022-12-24T15:27:32;100185.50;;;5.58;93.55
46291;BME280;32023;44.444;26.006;2022-12-24T15:30:20;100181.56;;;5.54;93.75
46291;BME280;32023;44.444;26.006;2022-12-24T15:33:08;100181.41;;;5.49;94.08
46291;BME280;32023;44.444;26.006;2022-12-24T15:35:56;100175.97;;;5.49;94.11
46291;BME280;32023;44.444;26.006;2022-12-24T15:38:41;100180.22;;;5.45;94.16
46291;BME280;32023;44.444;26.006;2022-12-24T15:41:30;100172.28;;;5.44;94.18
46291;BME280;32023;44.444;26.006;2022-12-24T15:44:03;100062.78;;;4.74;94.34
46291;BME280;32023;44.444;26.006;2022-12-24T15:46:38;100179.75;;;5.48;94.78
46291;BME280;32023;44.444;26.006;2022-12-24T15:49:22;100182.72;;;5.47;94.44
46291;BME280;32023;44.444;26.006;2022-12-24T15:55:22;100182.25;;;5.50;94.71
46291;BME280;32023;44.444;26.006;2022-12-24T15:58:01;100184.16;;;5.49;94.85
46291;BME280;32023;44.444;26.006;2022-12-24T16:00:36;100187.34;;;5.46;95.01
46291;BME280;32023;44.444;26.006;2022-12-24T16:06:23;100035.97;;;4.34;94.84
46291;BME280;32023;44.444;26.006;2022-12-24T16:11:52;100176.59;;;5.51;95.03
46291;BME280;32023;44.444;26.006;2022-12-24T16:14:28;100172.19;;;5.50;95.11
46291;BME280;32023;44.444;26.006;2022-12-24T16:16:59;100173.84;;;5.51;95.30
46291;BME280;32023;44.444;26.006;2022-12-24T16:19:52;100161.34;;;5.44;95.05
46291;BME280;32023;44.444;26.006;2022-12-24T16:22:30;100157.41;;;5.40;95.65
46291;BME280;32023;44.444;26.006;2022-12-24T16:25:29;100160.94;;;5.40;96.02
46291;BME280;32023;44.444;26.006;2022-12-24T16:27:56;100162.63;;;5.41;96.07
46291;BME280;32023;44.444;26.006;2022-12-24T16:30:26;100162.25;;;5.38;95.98
46291;BME280;32023;44.444;26.006;2022-12-24T16:33:04;100155.97;;;5.37;96.24
46291;BME280;32023;44.444;26.006;2022-12-24T16:35:37;100110.91;;;5.16;96.53
46291;BME280;32023;44.444;26.006;2022-12-24T16:38:23;100162.50;;;5.36;96.68
46291;BME280;32023;44.444;26.006;2022-12-24T16:41:20;100155.97;;;5.37;96.88
46291;BME280;32023;44.444;26.006;2022-12-24T16:44:15;100158.09;;;5.35;96.84
46291;BME280;32023;44.444;26.006;2022-12-24T16:47:00;100169.41;;;5.39;96.92
46291;BME280;32023;44.444;26.006;2022-12-24T16:49:57;100166.41;;;5.40;96.44
46291;BME280;32023;44.444;26.006;2022-12-24T16:52:34;100172.34;;;5.37;96.40
46291;BME280;32023;44.444;26.006;2022-12-24T16:55:11;100173.44;;;5.36;96.04
46291;BME280;32023;44.444;26.006;2022-12-24T17:00:37;100173.75;;;5.28;96.66
46291;BME280;32023;44.444;26.006;2022-12-24T17:03:04;100180.63;;;5.30;96.59
46291;BME280;32023;44.444;26.006;2022-12-24T17:05:59;100176.22;;;5.29;96.85
46291;BME280;32023;44.444;26.006;2022-12-24T17:08:39;100183.56;;;5.29;96.53
46291;BME280;32023;44.444;26.006;2022-12-24T17:11:06;100184.41;;;5.29;96.74
46291;BME280;32023;44.444;26.006;2022-12-24T17:13:47;100180.84;;;5.29;97.05
46291;BME280;32023;44.444;26.006;2022-12-24T17:19:16;100189.03;;;5.29;97.06
46291;BME280;32023;44.444;26.006;2022-12-24T17:21:49;100186.47;;;5.34;97.26
46291;BME280;32023;44.444;26.006;2022-12-24T17:24:30;100193.22;;;5.31;96.86
46291;BME280;32023;44.444;26.006;2022-12-24T17:27:06;100195.47;;;5.34;97.33
46291;BME280;32023;44.444;26.006;2022-12-24T17:30:14;100198.69;;;5.31;97.58
46291;BME280;32023;44.444;26.006;2022-12-24T17:32:53;100206.03;;;5.31;97.20
46291;BME280;32023;44.444;26.006;2022-12-24T17:39:22;100211.97;;;5.28;97.21
46291;BME280;32023;44.444;26.006;2022-12-24T17:42:09;100211.59;;;5.24;97.60
46291;BME280;32023;44.444;26.006;2022-12-24T17:45:04;100218.09;;;5.23;97.81
46291;BME280;32023;44.444;26.006;2022-12-24T17:48:08;100215.84;;;5.20;97.51
46291;BME280;32023;44.444;26.006;2022-12-24T17:51:32;100207.84;;;5.19;97.46
46291;BME280;32023;44.444;26.006;2022-12-24T17:54:54;100202.25;;;5.14;98.12
46291;BME280;32023;44.444;26.006;2022-12-24T17:57:50;100198.47;;;5.15;98.29
46291;BME280;32023;44.444;26.006;2022-12-24T18:03:29;100204.06;;;5.20;98.08
46291;BME280;32023;44.444;26.006;2022-12-24T18:06:18;100209.53;;;5.20;98.56
46291;BME280;32023;44.444;26.006;2022-12-24T18:08:55;100211.13;;;5.27;98.22
46291;BME280;32023;44.444;26.006;2022-12-24T18:11:38;100220.75;;;5.30;97.79
46291;BME280;32023;44.444;26.006;2022-12-24T18:17:08;100219.06;;;5.29;97.40
46291;BME280;32023;44.444;26.006;2022-12-24T18:19:40;100218.00;;;5.30;97.22
46291;BME280;32023;44.444;26.006;2022-12-24T18:22:32;100216.13;;;5.30;96.90
46291;BME280;32023;44.444;26.006;2022-12-24T18:25:10;100221.19;;;5.27;96.35
46291;BME280;32023;44.444;26.006;2022-12-24T18:31:44;100221.03;;;5.22;96.26
46291;BME280;32023;44.444;26.006;2022-12-24T18:34:24;100239.94;;;5.23;96.10
46291;BME280;32023;44.444;26.006;2022-12-24T18:39:59;100244.25;;;5.31;96.13